createdAt,value
2024-02-19T00:02:46.012Z,82.43
2024-02-19T00:06:03.191Z,82.46
2024-02-19T00:09:21.689Z,82.57
2024-02-19T00:12:39.588Z,82.80
2024-02-19T00:15:57.524Z,82.97
2024-02-19T00:19:15.753Z,82.69
2024-02-19T00:22:33.101Z,83.17
2024-02-19T00:25:52.174Z,83.46
2024-02-19T00:29:09.934Z,83.62
2024-02-19T00:32:27.863Z,83.21
2024-02-19T00:35:45.684Z,83.65
2024-02-19T00:39:03.727Z,83.30
2024-02-19T00:42:21.423Z,83.26
2024-02-19T00:45:39.204Z,83.72
2024-02-19T00:48:56.502Z,83.55
2024-02-19T00:52:14.320Z,83.54
2024-02-19T00:55:32.985Z,83.86
2024-02-19T00:58:50.851Z,83.82
2024-02-19T01:02:08.082Z,83.76
2024-02-19T01:05:27.247Z,83.52
2024-02-19T01:08:45.028Z,83.62
2024-02-19T01:12:02.767Z,83.94
2024-02-19T01:15:21.136Z,84.55
2024-02-19T01:18:38.792Z,84.34
2024-02-19T01:21:56.613Z,84.03
2024-02-19T01:25:15.748Z,84.11
2024-02-19T01:28:33.472Z,83.64
2024-02-19T01:31:52.781Z,83.53
2024-02-19T01:35:10.516Z,83.61
2024-02-19T01:38:28.338Z,83.74
2024-02-19T01:41:45.776Z,83.84
2024-02-19T01:45:03.079Z,84.37
2024-02-19T01:48:20.977Z,84.08
2024-02-19T01:51:39.850Z,84.08
2024-02-19T01:54:58.028Z,84.08
2024-02-19T01:58:16.728Z,84.56
2024-02-19T02:01:37.330Z,83.88
2024-02-19T02:04:54.872Z,84.00
2024-02-19T02:08:13.338Z,83.90
2024-02-19T02:11:31.094Z,83.89
2024-02-19T02:14:48.979Z,84.33
2024-02-19T02:18:06.483Z,84.61
2024-02-19T02:21:24.292Z,84.23
2024-02-19T02:24:41.479Z,84.46
2024-02-19T02:27:59.596Z,84.71
2024-02-19T02:31:17.489Z,85.25
2024-02-19T02:34:36.615Z,85.00
2024-02-19T02:37:54.101Z,85.35
2024-02-19T02:41:11.955Z,85.19
2024-02-19T02:44:29.768Z,84.73
2024-02-19T02:47:47.229Z,85.16
2024-02-19T02:51:04.507Z,85.50
2024-02-19T02:54:21.948Z,85.55
2024-02-19T02:57:39.693Z,85.74
2024-02-19T03:00:57.582Z,85.60
2024-02-19T03:04:15.825Z,85.92
2024-02-19T03:07:33.632Z,85.95
2024-02-19T03:10:51.587Z,86.38
2024-02-19T03:14:11.898Z,86.52
2024-02-19T03:17:30.862Z,86.29
2024-02-19T03:20:48.735Z,86.64
2024-02-19T03:24:06.673Z,86.38
2024-02-19T03:27:24.697Z,86.07
2024-02-19T03:30:42.496Z,86.83
2024-02-19T03:34:00.371Z,86.76
2024-02-19T03:37:18.589Z,86.46
2024-02-19T03:40:36.567Z,86.76
2024-02-19T03:43:54.282Z,86.68
2024-02-19T03:47:13.259Z,86.20
2024-02-19T03:50:30.909Z,86.22
2024-02-19T03:53:48.333Z,86.67
2024-02-19T03:57:06.784Z,86.75
2024-02-19T04:00:26.036Z,85.99
2024-02-19T04:03:43.270Z,86.12
2024-02-19T04:07:01.789Z,86.06
2024-02-19T04:10:20.626Z,86.02
2024-02-19T04:13:38.401Z,86.23
2024-02-19T04:16:55.968Z,86.08
2024-02-19T04:20:16.032Z,86.69
2024-02-19T04:23:33.479Z,86.12
2024-02-19T04:26:50.930Z,86.10
2024-02-19T04:30:08.815Z,86.14
2024-02-19T04:33:26.987Z,86.06
2024-02-19T04:36:44.513Z,86.29
2024-02-19T04:40:02.288Z,86.15
2024-02-19T04:43:20.309Z,86.79
2024-02-19T04:46:39.168Z,86.55
2024-02-19T04:49:57.347Z,86.88
2024-02-19T04:53:17.071Z,86.16
2024-02-19T04:56:34.605Z,86.70
2024-02-19T04:59:52.315Z,86.87
2024-02-19T05:03:10.124Z,86.52
2024-02-19T05:06:30.139Z,86.74
2024-02-19T05:09:48.180Z,86.89
2024-02-19T05:13:05.929Z,87.10
2024-02-19T05:16:23.659Z,87.38
2024-02-19T05:19:41.491Z,86.76
2024-02-19T05:22:59.270Z,86.53
2024-02-19T05:26:17.134Z,87.03
2024-02-19T05:29:34.689Z,86.66
2024-02-19T05:32:52.413Z,86.70
2024-02-19T05:36:11.513Z,86.34
2024-02-19T05:39:29.195Z,86.96
2024-02-19T05:42:48.212Z,86.83
2024-02-19T05:46:05.886Z,86.80
2024-02-19T05:49:24.099Z,86.93
2024-02-19T05:52:41.929Z,86.74
2024-02-19T05:55:59.764Z,86.64
2024-02-19T05:59:17.714Z,86.95
2024-02-19T06:02:35.470Z,86.87
2024-02-19T06:05:55.368Z,87.73
2024-02-19T06:09:13.029Z,87.56
2024-02-19T06:12:30.501Z,87.08
2024-02-19T06:15:48.344Z,86.76
2024-02-19T06:19:06.108Z,86.96
2024-02-19T06:22:23.847Z,87.58
2024-02-19T06:25:41.674Z,87.28
2024-02-19T06:28:59.517Z,87.44
2024-02-19T06:32:18.192Z,87.43
2024-02-19T06:35:35.706Z,86.81
2024-02-19T06:38:53.400Z,87.33
2024-02-19T06:42:12.346Z,87.14
2024-02-19T06:45:29.951Z,86.90
2024-02-19T06:48:50.699Z,87.40
2024-02-19T06:52:07.859Z,87.35
2024-02-19T06:55:26.715Z,86.61
2024-02-19T06:58:44.509Z,86.82
2024-02-19T07:02:06.835Z,87.47
2024-02-19T07:05:22.205Z,87.24
2024-02-19T07:08:40.053Z,87.52
2024-02-19T07:11:57.694Z,87.90
2024-02-19T07:15:17.223Z,87.67
2024-02-19T07:18:34.890Z,87.09
2024-02-19T07:21:52.625Z,87.10
2024-02-19T07:25:17.341Z,86.91
2024-02-19T07:28:30.242Z,87.08
2024-02-19T07:31:47.991Z,87.22
2024-02-19T07:35:05.917Z,87.01
2024-02-19T07:38:23.519Z,86.97
2024-02-19T07:41:41.076Z,87.21
2024-02-19T07:44:58.665Z,87.06
2024-02-19T07:48:18.820Z,87.15
2024-02-19T07:51:36.710Z,86.62
2024-02-19T07:54:54.191Z,86.79
2024-02-19T07:58:12.229Z,86.75
2024-02-19T08:01:30.168Z,86.60
2024-02-19T08:04:48.122Z,86.58
2024-02-19T08:08:05.854Z,86.76
2024-02-19T08:11:25.383Z,87.22
2024-02-19T08:14:42.840Z,86.55
2024-02-19T08:18:00.498Z,86.88
2024-02-19T08:21:18.725Z,87.01
2024-02-19T08:24:36.412Z,86.66
2024-02-19T08:27:55.592Z,86.59
2024-02-19T08:31:13.702Z,86.31
2024-02-19T08:34:31.728Z,86.71
2024-02-19T08:37:49.717Z,86.67
2024-02-19T08:41:07.543Z,87.06
2024-02-19T08:44:25.946Z,86.98
2024-02-19T08:47:44.143Z,86.62
2024-02-19T08:51:03.131Z,87.11
2024-02-19T08:54:20.924Z,87.15
2024-02-19T08:57:38.540Z,86.57
2024-02-19T09:00:56.390Z,87.25
2024-02-19T09:04:14.128Z,87.05
2024-02-19T09:07:31.732Z,87.37
2024-02-19T09:10:49.397Z,87.57
2024-02-19T09:14:07.510Z,86.99
2024-02-19T09:17:25.221Z,87.26
2024-02-19T09:20:42.525Z,87.69
2024-02-19T09:24:00.237Z,87.35
2024-02-19T09:27:18.006Z,87.71
2024-02-19T09:30:35.835Z,88.03
2024-02-19T09:33:55.441Z,87.92
2024-02-19T09:37:13.610Z,88.14
2024-02-19T09:40:32.134Z,87.63
2024-02-19T09:43:50.395Z,87.46
2024-02-19T09:47:10.331Z,87.92
2024-02-19T09:50:28.098Z,87.38
2024-02-19T09:53:46.265Z,87.35
2024-02-19T09:57:04.257Z,87.48
2024-02-19T10:00:25.609Z,87.80
2024-02-19T10:03:43.245Z,87.77
2024-02-19T10:07:04.582Z,87.42
2024-02-19T10:10:23.731Z,87.36
2024-02-19T10:13:43.455Z,87.19
2024-02-19T10:17:02.313Z,87.39
2024-02-19T10:20:22.268Z,86.70
2024-02-19T10:23:40.028Z,86.96
2024-02-19T10:26:58.218Z,87.22
2024-02-19T10:30:20.988Z,86.88
2024-02-19T10:33:39.424Z,86.97
2024-02-19T10:36:57.126Z,86.90
2024-02-19T10:40:21.589Z,86.41
2024-02-19T10:43:39.346Z,86.78
2024-02-19T10:46:57.510Z,86.64
2024-02-19T10:50:20.415Z,86.45
2024-02-19T10:53:40.040Z,86.54
2024-02-19T10:56:57.817Z,86.67
2024-02-19T11:00:22.397Z,86.87
2024-02-19T11:03:51.426Z,86.18
2024-02-19T11:07:10.196Z,86.21
2024-02-19T11:10:28.183Z,86.63
2024-02-19T11:13:48.983Z,86.65
2024-02-19T11:17:06.686Z,86.24
2024-02-19T11:20:31.826Z,85.68
2024-02-19T11:23:48.909Z,85.10
2024-02-19T11:27:09.115Z,84.83
2024-02-19T11:30:26.548Z,83.44
2024-02-19T11:33:43.724Z,82.33
2024-02-19T11:37:02.706Z,81.67
2024-02-19T11:40:22.084Z,80.30
2024-02-19T11:43:40.088Z,78.93
2024-02-19T11:46:58.616Z,77.84
2024-02-19T11:50:20.978Z,76.90
2024-02-19T11:53:38.256Z,76.26
2024-02-19T11:56:59.608Z,75.34
2024-02-19T12:00:20.398Z,74.77
2024-02-19T12:03:39.640Z,74.56
2024-02-19T12:06:56.904Z,73.93
2024-02-19T12:10:17.988Z,73.33
2024-02-19T12:13:38.124Z,73.04
2024-02-19T12:16:57.200Z,72.28
2024-02-19T12:20:17.147Z,72.48
2024-02-19T12:23:34.403Z,72.36
2024-02-19T12:26:51.569Z,72.39
2024-02-19T12:30:09.209Z,72.31
2024-02-19T12:33:26.779Z,72.41
2024-02-19T12:36:44.086Z,71.99
2024-02-19T12:40:01.474Z,72.26
2024-02-19T12:43:19.198Z,72.13
2024-02-19T12:46:36.675Z,71.65
2024-02-19T12:49:55.196Z,72.07
2024-02-19T12:53:13.257Z,71.92
2024-02-19T12:56:30.893Z,71.68
2024-02-19T12:59:48.575Z,71.82
2024-02-19T13:03:06.039Z,71.47
2024-02-19T13:06:23.471Z,71.69
2024-02-19T13:09:41.782Z,71.50
2024-02-19T13:12:59.434Z,71.52
2024-02-19T13:16:18.100Z,71.15
2024-02-19T13:19:35.878Z,71.31
2024-02-19T13:22:53.319Z,70.39
2024-02-19T13:26:12.416Z,70.24
2024-02-19T13:29:29.626Z,70.26
2024-02-19T13:32:48.279Z,70.21
2024-02-19T13:36:05.808Z,70.94
2024-02-19T13:39:23.225Z,70.19
2024-02-19T13:42:40.315Z,70.74
2024-02-19T13:46:09.003Z,71.80
2024-02-19T13:49:28.391Z,73.02
2024-02-19T13:52:45.891Z,73.12
2024-02-19T13:56:03.925Z,73.97
2024-02-19T13:59:21.035Z,74.37
2024-02-19T14:02:38.200Z,75.15
2024-02-19T14:05:56.087Z,76.13
2024-02-19T14:09:13.648Z,77.21
2024-02-19T14:12:30.849Z,78.38
2024-02-19T14:15:48.247Z,79.23
2024-02-19T14:19:05.731Z,79.75
2024-02-19T14:22:24.078Z,80.90
2024-02-19T14:25:42.116Z,82.27
2024-02-19T14:28:59.884Z,83.32
2024-02-19T14:32:18.232Z,83.15
2024-02-19T14:35:35.750Z,84.34
2024-02-19T14:38:53.628Z,84.87
2024-02-19T14:42:11.949Z,85.57
2024-02-19T14:45:29.394Z,86.92
2024-02-19T14:48:47.629Z,88.71
2024-02-19T14:52:05.227Z,90.35
2024-02-19T14:55:22.716Z,90.84
2024-02-19T14:58:40.244Z,91.51
2024-02-19T15:01:57.697Z,92.71
2024-02-19T15:05:17.601Z,93.50
2024-02-19T15:08:37.807Z,93.36
2024-02-19T15:11:55.423Z,93.72
2024-02-19T15:15:17.038Z,95.23
2024-02-19T15:18:34.649Z,95.01
2024-02-19T15:21:52.229Z,95.70
2024-02-19T15:25:10.569Z,95.78
2024-02-19T15:28:27.850Z,96.48
2024-02-19T15:31:47.249Z,96.89
2024-02-19T15:35:05.238Z,96.99
2024-02-19T15:38:23.987Z,97.00
2024-02-19T15:41:41.606Z,97.00
2024-02-19T15:44:58.995Z,97.00
2024-02-19T15:48:18.071Z,97.00
2024-02-19T15:51:35.782Z,97.00
2024-02-19T15:54:54.052Z,97.00
2024-02-19T15:58:11.759Z,97.00
2024-02-19T16:01:29.530Z,97.00
2024-02-19T16:04:46.872Z,97.00
2024-02-19T16:08:04.826Z,97.00
2024-02-19T16:11:22.202Z,97.00
2024-02-19T16:14:40.853Z,97.00
2024-02-19T16:17:58.110Z,97.00
2024-02-19T16:21:15.878Z,97.00
2024-02-19T16:24:35.624Z,97.00
2024-02-19T16:27:53.132Z,97.00
2024-02-19T16:31:11.803Z,97.00
2024-02-19T16:34:29.529Z,97.00
2024-02-19T16:37:47.228Z,97.00
2024-02-19T16:41:04.430Z,97.00
2024-02-19T16:44:22.412Z,97.00
2024-02-19T16:47:39.899Z,97.00
2024-02-19T16:50:59.027Z,97.00
2024-02-19T16:54:18.394Z,97.00
2024-02-19T16:57:35.583Z,97.00
2024-02-19T17:00:55.673Z,97.00
2024-02-19T17:04:13.550Z,97.00
2024-02-19T17:07:32.028Z,97.00
2024-02-19T17:10:50.129Z,97.00
2024-02-19T17:14:07.738Z,97.00
2024-02-19T17:17:25.115Z,97.00
2024-02-19T17:20:42.451Z,97.00
2024-02-19T17:23:59.687Z,97.00
2024-02-19T17:27:17.313Z,97.00
2024-02-19T17:30:34.538Z,97.00
2024-02-19T17:33:52.169Z,97.00
2024-02-19T17:37:09.685Z,97.00
2024-02-19T17:40:28.157Z,97.00
2024-02-19T17:43:46.676Z,96.68
2024-02-19T17:47:04.894Z,95.71
2024-02-19T17:50:22.589Z,94.46
2024-02-19T17:53:39.849Z,94.14
2024-02-19T17:56:57.278Z,93.65
2024-02-19T18:00:17.643Z,93.84
2024-02-19T18:03:35.207Z,93.03
2024-02-19T18:06:52.391Z,92.70
2024-02-19T18:10:10.253Z,92.03
2024-02-19T18:13:27.454Z,92.13
2024-02-19T18:16:46.602Z,92.50
2024-02-19T18:20:03.941Z,92.63
2024-02-19T18:23:21.412Z,91.94
2024-02-19T18:26:39.570Z,92.54
2024-02-19T18:29:58.967Z,92.82
2024-02-19T18:33:18.071Z,93.05
2024-02-19T18:36:35.328Z,93.78
2024-02-19T18:39:52.453Z,93.46
2024-02-19T18:43:10.270Z,93.40
2024-02-19T18:46:27.623Z,93.73
2024-02-19T18:49:47.264Z,92.92
2024-02-19T18:53:04.890Z,92.60
2024-02-19T18:56:22.030Z,92.65
2024-02-19T18:59:41.652Z,91.52
2024-02-19T19:03:00.456Z,91.52
2024-02-19T19:06:19.943Z,91.47
2024-02-19T19:09:38.957Z,91.61
2024-02-19T19:12:56.374Z,91.06
2024-02-19T19:16:14.946Z,90.76
2024-02-19T19:19:32.281Z,90.92
2024-02-19T19:22:49.578Z,91.42
2024-02-19T19:26:07.678Z,91.19
2024-02-19T19:29:25.870Z,91.08
2024-02-19T19:32:43.175Z,90.55
2024-02-19T19:36:01.932Z,90.61
2024-02-19T19:39:19.495Z,90.51
2024-02-19T19:42:37.843Z,90.94
2024-02-19T19:45:57.219Z,90.67
2024-02-19T19:49:15.904Z,90.76
2024-02-19T19:52:35.682Z,90.36
2024-02-19T19:55:53.204Z,89.59
2024-02-19T19:59:10.990Z,89.80
2024-02-19T20:02:28.332Z,89.88
2024-02-19T20:05:46.110Z,90.33
2024-02-19T20:09:03.473Z,89.23
2024-02-19T20:12:22.316Z,89.63
2024-02-19T20:15:40.763Z,89.71
2024-02-19T20:18:58.015Z,89.75
2024-02-19T20:22:15.437Z,89.07
2024-02-19T20:25:32.964Z,89.39
2024-02-19T20:28:50.668Z,89.46
2024-02-19T20:32:09.842Z,89.43
2024-02-19T20:35:27.878Z,89.45
2024-02-19T20:38:45.418Z,89.58
2024-02-19T20:42:02.917Z,89.89
2024-02-19T20:45:22.272Z,89.60
2024-02-19T20:48:39.525Z,89.89
2024-02-19T20:51:56.755Z,89.58
2024-02-19T20:55:15.631Z,89.43
2024-02-19T20:58:33.217Z,88.98
2024-02-19T21:01:50.520Z,89.21
2024-02-19T21:05:08.513Z,87.99
2024-02-19T21:08:26.299Z,87.79
2024-02-19T21:11:43.723Z,88.07
2024-02-19T21:15:00.994Z,87.68
2024-02-19T21:18:30.617Z,87.61
2024-02-19T21:21:37.387Z,88.30
2024-02-19T21:24:54.844Z,87.83
2024-02-19T21:28:14.235Z,87.69
2024-02-19T21:31:31.584Z,87.91
2024-02-19T21:34:49.435Z,88.32
2024-02-19T21:38:06.931Z,87.69
2024-02-19T21:41:24.277Z,88.69
2024-02-19T21:44:41.821Z,88.88
2024-02-19T21:47:59.138Z,88.55
2024-02-19T21:51:17.640Z,88.33
2024-02-19T21:54:34.829Z,88.99
2024-02-19T21:57:52.736Z,88.89
2024-02-19T22:01:10.382Z,89.92
2024-02-19T22:04:27.800Z,89.56
2024-02-19T22:07:47.155Z,89.93
2024-02-19T22:11:04.672Z,89.61
2024-02-19T22:14:22.472Z,89.82
2024-02-19T22:17:39.708Z,89.97
2024-02-19T22:20:57.021Z,90.88
2024-02-19T22:24:15.284Z,90.34
2024-02-19T22:27:32.552Z,90.89
2024-02-19T22:30:49.746Z,91.28
2024-02-19T22:34:07.217Z,91.29
2024-02-19T22:37:24.549Z,91.02
2024-02-19T22:40:41.835Z,91.91
2024-02-19T22:43:59.178Z,91.28
2024-02-19T22:47:16.703Z,91.90
2024-02-19T22:50:34.332Z,92.62
2024-02-19T22:53:51.432Z,92.75
2024-02-19T22:57:06.531Z,93.01
2024-02-19T23:00:31.250Z,92.74
2024-02-19T23:03:48.909Z,93.66
2024-02-19T23:07:06.222Z,94.12
2024-02-19T23:10:23.768Z,95.04
2024-02-19T23:13:41.016Z,95.29
2024-02-19T23:16:59.967Z,95.37
2024-02-19T23:20:19.850Z,95.91
2024-02-19T23:23:36.953Z,96.81
2024-02-19T23:26:54.022Z,96.94
2024-02-19T23:30:12.659Z,96.52
2024-02-19T23:33:30.006Z,97.00
2024-02-19T23:36:47.609Z,97.00
2024-02-19T23:40:06.037Z,97.00
2024-02-19T23:43:24.998Z,97.00
2024-02-19T23:46:42.378Z,96.97
2024-02-19T23:49:59.656Z,96.97
2024-02-19T23:53:17.241Z,97.00
2024-02-19T23:56:34.507Z,97.00
2024-02-19T23:59:51.661Z,96.86
